sensor_id;sensor_type;location;lat;lon;timestamp;P1;durP1;ratioP1;P2;durP2;ratioP2
28762;SDS011;15918;51.270;6.522;2024-03-23T00:54:21;9.35;;;4.57;;
28762;SDS011;15918;51.270;6.522;2024-03-23T00:56:47;12.40;;;4.60;;
28762;SDS011;15918;51.270;6.522;2024-03-23T00:59:12;12.77;;;4.07;;
28762;SDS011;15918;51.270;6.522;2024-03-23T01:01:38;9.68;;;4.30;;
28762;SDS011;15918;51.270;6.522;2024-03-23T01:04:04;10.65;;;4.32;;
28762;SDS011;15918;51.270;6.522;2024-03-23T01:06:30;7.95;;;3.25;;
28762;SDS011;15918;51.270;6.522;2024-03-23T01:08:55;10.70;;;3.67;;
28762;SDS011;15918;51.270;6.522;2024-03-23T01:11:21;9.48;;;3.63;;
28762;SDS011;15918;51.270;6.522;2024-03-23T01:13:46;8.25;;;2.92;;
28762;SDS011;15918;51.270;6.522;2024-03-23T01:16:12;8.52;;;3.00;;
28762;SDS011;15918;51.270;6.522;2024-03-23T01:18:38;7.85;;;3.08;;
28762;SDS011;15918;51.270;6.522;2024-03-23T01:21:03;7.78;;;2.90;;
28762;SDS011;15918;51.270;6.522;2024-03-23T01:23:29;6.55;;;3.42;;
28762;SDS011;15918;51.270;6.522;2024-03-23T01:25:54;7.93;;;3.03;;
28762;SDS011;15918;51.270;6.522;2024-03-23T01:28:21;7.80;;;3.05;;
28762;SDS011;15918;51.270;6.522;2024-03-23T01:30:47;11.50;;;3.78;;
28762;SDS011;15918;51.270;6.522;2024-03-23T01:33:12;7.60;;;3.10;;
28762;SDS011;15918;51.270;6.522;2024-03-23T01:35:38;6.40;;;2.95;;
28762;SDS011;15918;51.270;6.522;2024-03-23T01:38:04;5.82;;;2.63;;
28762;SDS011;15918;51.270;6.522;2024-03-23T01:40:30;7.40;;;2.78;;
28762;SDS011;15918;51.270;6.522;2024-03-23T01:42:57;8.38;;;3.33;;
28762;SDS011;15918;51.270;6.522;2024-03-23T01:45:26;6.97;;;2.83;;
28762;SDS011;15918;51.270;6.522;2024-03-23T01:47:52;8.10;;;3.22;;
28762;SDS011;15918;51.270;6.522;2024-03-23T01:50:19;7.25;;;3.00;;
28762;SDS011;15918;51.270;6.522;2024-03-23T01:52:46;7.13;;;2.90;;
28762;SDS011;15918;51.270;6.522;2024-03-23T01:55:12;7.18;;;2.92;;
28762;SDS011;15918;51.270;6.522;2024-03-23T01:57:37;8.05;;;2.78;;
28762;SDS011;15918;51.270;6.522;2024-03-23T02:00:03;11.10;;;3.33;;
28762;SDS011;15918;51.270;6.522;2024-03-23T02:02:29;6.80;;;2.65;;
28762;SDS011;15918;51.270;6.522;2024-03-23T02:04:55;7.07;;;2.55;;
28762;SDS011;15918;51.270;6.522;2024-03-23T02:07:21;9.77;;;2.78;;
28762;SDS011;15918;51.270;6.522;2024-03-23T02:09:46;7.50;;;3.13;;
28762;SDS011;15918;51.270;6.522;2024-03-23T02:12:12;8.73;;;3.35;;
28762;SDS011;15918;51.270;6.522;2024-03-23T02:14:38;10.30;;;3.47;;
28762;SDS011;15918;51.270;6.522;2024-03-23T02:17:03;8.05;;;2.88;;
28762;SDS011;15918;51.270;6.522;2024-03-23T02:19:29;11.63;;;3.47;;
28762;SDS011;15918;51.270;6.522;2024-03-23T02:21:54;6.53;;;3.05;;
28762;SDS011;15918;51.270;6.522;2024-03-23T02:24:20;6.40;;;2.90;;
28762;SDS011;15918;51.270;6.522;2024-03-23T02:26:46;8.75;;;2.90;;
28762;SDS011;15918;51.270;6.522;2024-03-23T02:29:13;11.18;;;3.17;;
28762;SDS011;15918;51.270;6.522;2024-03-23T02:31:39;6.50;;;2.58;;
28762;SDS011;15918;51.270;6.522;2024-03-23T02:34:04;12.05;;;3.80;;
28762;SDS011;15918;51.270;6.522;2024-03-23T02:36:30;9.23;;;2.80;;
28762;SDS011;15918;51.270;6.522;2024-03-23T02:38:56;9.45;;;3.35;;
28762;SDS011;15918;51.270;6.522;2024-03-23T02:41:21;8.18;;;2.95;;
28762;SDS011;15918;51.270;6.522;2024-03-23T02:43:51;9.15;;;3.78;;
28762;SDS011;15918;51.270;6.522;2024-03-23T02:46:17;10.70;;;3.70;;
28762;SDS011;15918;51.270;6.522;2024-03-23T02:48:43;10.18;;;2.97;;
28762;SDS011;15918;51.270;6.522;2024-03-23T02:51:08;9.77;;;3.75;;
28762;SDS011;15918;51.270;6.522;2024-03-23T02:53:34;7.55;;;3.03;;
28762;SDS011;15918;51.270;6.522;2024-03-23T02:55:59;14.05;;;4.20;;
28762;SDS011;15918;51.270;6.522;2024-03-23T02:58:25;14.40;;;3.90;;
28762;SDS011;15918;51.270;6.522;2024-03-23T03:00:51;14.70;;;4.32;;
28762;SDS011;15918;51.270;6.522;2024-03-23T03:03:17;13.60;;;4.00;;
28762;SDS011;15918;51.270;6.522;2024-03-23T03:05:42;9.27;;;3.28;;
28762;SDS011;15918;51.270;6.522;2024-03-23T03:08:08;6.38;;;2.95;;
28762;SDS011;15918;51.270;6.522;2024-03-23T03:10:33;7.82;;;2.88;;
28762;SDS011;15918;51.270;6.522;2024-03-23T03:13:01;11.27;;;3.72;;
28762;SDS011;15918;51.270;6.522;2024-03-23T03:15:27;9.82;;;3.13;;
28762;SDS011;15918;51.270;6.522;2024-03-23T03:17:53;8.35;;;2.95;;
28762;SDS011;15918;51.270;6.522;2024-03-23T03:20:18;10.98;;;3.55;;
28762;SDS011;15918;51.270;6.522;2024-03-23T03:22:44;15.75;;;4.10;;
28762;SDS011;15918;51.270;6.522;2024-03-23T03:25:09;9.88;;;3.97;;
28762;SDS011;15918;51.270;6.522;2024-03-23T03:27:35;7.78;;;3.20;;
28762;SDS011;15918;51.270;6.522;2024-03-23T03:30:01;8.77;;;3.25;;
28762;SDS011;15918;51.270;6.522;2024-03-23T03:32:31;11.40;;;4.43;;
28762;SDS011;15918;51.270;6.522;2024-03-23T03:34:58;8.90;;;3.60;;
28762;SDS011;15918;51.270;6.522;2024-03-23T03:37:23;6.65;;;3.22;;
28762;SDS011;15918;51.270;6.522;2024-03-23T03:39:49;10.02;;;3.30;;
28762;SDS011;15918;51.270;6.522;2024-03-23T03:42:15;10.57;;;4.28;;
28762;SDS011;15918;51.270;6.522;2024-03-23T03:44:40;10.13;;;3.40;;
28762;SDS011;15918;51.270;6.522;2024-03-23T03:47:06;6.88;;;3.17;;
28762;SDS011;15918;51.270;6.522;2024-03-23T03:49:32;8.80;;;3.33;;
28762;SDS011;15918;51.270;6.522;2024-03-23T03:51:57;11.38;;;3.55;;
28762;SDS011;15918;51.270;6.522;2024-03-23T03:54:23;15.00;;;3.55;;
28762;SDS011;15918;51.270;6.522;2024-03-23T03:56:48;10.93;;;4.00;;
28762;SDS011;15918;51.270;6.522;2024-03-23T03:59:14;11.90;;;4.05;;
28762;SDS011;15918;51.270;6.522;2024-03-23T04:01:40;13.20;;;4.10;;
28762;SDS011;15918;51.270;6.522;2024-03-23T04:04:06;9.88;;;3.95;;
28762;SDS011;15918;51.270;6.522;2024-03-23T04:06:31;12.18;;;4.07;;
28762;SDS011;15918;51.270;6.522;2024-03-23T04:08:58;12.18;;;3.72;;
28762;SDS011;15918;51.270;6.522;2024-03-23T04:11:24;11.68;;;4.57;;
28762;SDS011;15918;51.270;6.522;2024-03-23T04:13:49;16.00;;;4.75;;
28762;SDS011;15918;51.270;6.522;2024-03-23T04:16:26;9.95;;;3.72;;
28762;SDS011;15918;51.270;6.522;2024-03-23T04:18:55;9.38;;;4.38;;
28762;SDS011;15918;51.270;6.522;2024-03-23T04:21:21;12.98;;;4.78;;
28762;SDS011;15918;51.270;6.522;2024-03-23T04:23:48;10.90;;;4.43;;
28762;SDS011;15918;51.270;6.522;2024-03-23T04:26:13;13.13;;;4.30;;
28762;SDS011;15918;51.270;6.522;2024-03-23T04:28:40;12.75;;;4.45;;
28762;SDS011;15918;51.270;6.522;2024-03-23T04:31:05;12.35;;;4.90;;
28762;SDS011;15918;51.270;6.522;2024-03-23T04:33:31;13.15;;;5.18;;
28762;SDS011;15918;51.270;6.522;2024-03-23T04:35:56;13.30;;;4.55;;
28762;SDS011;15918;51.270;6.522;2024-03-23T04:38:22;14.25;;;5.00;;
28762;SDS011;15918;51.270;6.522;2024-03-23T04:40:57;12.63;;;5.28;;
28762;SDS011;15918;51.270;6.522;2024-03-23T04:45:50;15.50;;;5.43;;
28762;SDS011;15918;51.270;6.522;2024-03-23T04:48:15;13.10;;;5.55;;
28762;SDS011;15918;51.270;6.522;2024-03-23T04:50:43;14.18;;;5.90;;
28762;SDS011;15918;51.270;6.522;2024-03-23T04:53:08;11.07;;;5.10;;
28762;SDS011;15918;51.270;6.522;2024-03-23T04:55:34;13.93;;;5.95;;
28762;SDS011;15918;51.270;6.522;2024-03-23T04:57:59;16.88;;;6.35;;
28762;SDS011;15918;51.270;6.522;2024-03-23T05:00:25;14.57;;;6.53;;
28762;SDS011;15918;51.270;6.522;2024-03-23T05:02:51;12.40;;;6.18;;
28762;SDS011;15918;51.270;6.522;2024-03-23T05:05:18;12.48;;;6.30;;
28762;SDS011;15918;51.270;6.522;2024-03-23T05:07:43;13.10;;;5.90;;
28762;SDS011;15918;51.270;6.522;2024-03-23T05:10:09;14.27;;;6.05;;
28762;SDS011;15918;51.270;6.522;2024-03-23T05:12:36;14.75;;;5.93;;
28762;SDS011;15918;51.270;6.522;2024-03-23T05:15:03;13.68;;;5.78;;
28762;SDS011;15918;51.270;6.522;2024-03-23T05:17:32;12.75;;;5.28;;
28762;SDS011;15918;51.270;6.522;2024-03-23T05:19:58;18.65;;;5.90;;
28762;SDS011;15918;51.270;6.522;2024-03-23T05:22:24;14.70;;;5.60;;
28762;SDS011;15918;51.270;6.522;2024-03-23T05:24:49;13.00;;;6.18;;
28762;SDS011;15918;51.270;6.522;2024-03-23T05:27:15;13.45;;;5.53;;
28762;SDS011;15918;51.270;6.522;2024-03-23T05:29:41;18.85;;;5.95;;
28762;SDS011;15918;51.270;6.522;2024-03-23T05:32:06;16.95;;;6.07;;
28762;SDS011;15918;51.270;6.522;2024-03-23T05:34:32;15.65;;;6.38;;
28762;SDS011;15918;51.270;6.522;2024-03-23T05:36:58;12.43;;;5.40;;
28762;SDS011;15918;51.270;6.522;2024-03-23T05:39:23;13.68;;;5.18;;
28762;SDS011;15918;51.270;6.522;2024-03-23T05:41:49;12.77;;;5.82;;
28762;SDS011;15918;51.270;6.522;2024-03-23T05:44:14;14.35;;;5.55;;
28762;SDS011;15918;51.270;6.522;2024-03-23T05:46:40;17.98;;;6.47;;
28762;SDS011;15918;51.270;6.522;2024-03-23T05:49:06;13.68;;;5.72;;
28762;SDS011;15918;51.270;6.522;2024-03-23T05:51:32;13.50;;;5.55;;
28762;SDS011;15918;51.270;6.522;2024-03-23T05:53:58;15.45;;;6.18;;
28762;SDS011;15918;51.270;6.522;2024-03-23T05:56:24;15.98;;;6.95;;
28762;SDS011;15918;51.270;6.522;2024-03-23T05:58:51;16.88;;;6.85;;
28762;SDS011;15918;51.270;6.522;2024-03-23T06:01:16;14.60;;;6.20;;
28762;SDS011;15918;51.270;6.522;2024-03-23T06:03:42;17.63;;;6.05;;
28762;SDS011;15918;51.270;6.522;2024-03-23T06:06:09;17.35;;;6.35;;
28762;SDS011;15918;51.270;6.522;2024-03-23T06:08:36;12.40;;;5.80;;
28762;SDS011;15918;51.270;6.522;2024-03-23T06:11:03;16.98;;;6.25;;
28762;SDS011;15918;51.270;6.522;2024-03-23T06:13:31;14.55;;;6.57;;
28762;SDS011;15918;51.270;6.522;2024-03-23T06:15:56;18.65;;;6.85;;
28762;SDS011;15918;51.270;6.522;2024-03-23T06:18:23;13.85;;;6.43;;
28762;SDS011;15918;51.270;6.522;2024-03-23T06:20:49;15.45;;;6.40;;
28762;SDS011;15918;51.270;6.522;2024-03-23T06:23:15;17.83;;;6.55;;
28762;SDS011;15918;51.270;6.522;2024-03-23T06:25:42;12.60;;;5.97;;
28762;SDS011;15918;51.270;6.522;2024-03-23T06:28:08;19.52;;;7.05;;
28762;SDS011;15918;51.270;6.522;2024-03-23T06:30:33;16.17;;;7.15;;
28762;SDS011;15918;51.270;6.522;2024-03-23T06:32:59;21.10;;;7.85;;
28762;SDS011;15918;51.270;6.522;2024-03-23T06:35:25;20.52;;;7.25;;
28762;SDS011;15918;51.270;6.522;2024-03-23T06:37:50;16.45;;;7.43;;
28762;SDS011;15918;51.270;6.522;2024-03-23T06:40:16;19.35;;;8.00;;
28762;SDS011;15918;51.270;6.522;2024-03-23T06:42:41;15.07;;;7.72;;
28762;SDS011;15918;51.270;6.522;2024-03-23T06:45:07;17.20;;;7.65;;
28762;SDS011;15918;51.270;6.522;2024-03-23T06:47:33;18.13;;;8.60;;
28762;SDS011;15918;51.270;6.522;2024-03-23T06:49:59;17.20;;;8.18;;
28762;SDS011;15918;51.270;6.522;2024-03-23T06:52:28;20.02;;;8.38;;
28762;SDS011;15918;51.270;6.522;2024-03-23T06:54:54;18.40;;;7.97;;
28762;SDS011;15918;51.270;6.522;2024-03-23T06:57:20;18.73;;;8.27;;
28762;SDS011;15918;51.270;6.522;2024-03-23T06:59:46;18.95;;;8.55;;
28762;SDS011;15918;51.270;6.522;2024-03-23T07:02:12;22.05;;;8.98;;
28762;SDS011;15918;51.270;6.522;2024-03-23T07:04:37;18.05;;;9.00;;
28762;SDS011;15918;51.270;6.522;2024-03-23T07:07:04;20.98;;;9.23;;
28762;SDS011;15918;51.270;6.522;2024-03-23T07:09:30;18.67;;;8.45;;
28762;SDS011;15918;51.270;6.522;2024-03-23T07:11:59;17.98;;;8.13;;
28762;SDS011;15918;51.270;6.522;2024-03-23T07:14:24;20.63;;;9.05;;
28762;SDS011;15918;51.270;6.522;2024-03-23T07:16:50;18.92;;;7.97;;
28762;SDS011;15918;51.270;6.522;2024-03-23T07:19:17;18.75;;;8.50;;
28762;SDS011;15918;51.270;6.522;2024-03-23T07:21:43;18.75;;;8.40;;
28762;SDS011;15918;51.270;6.522;2024-03-23T07:24:09;20.00;;;7.88;;
28762;SDS011;15918;51.270;6.522;2024-03-23T07:26:35;18.30;;;8.13;;
28762;SDS011;15918;51.270;6.522;2024-03-23T07:29:01;18.23;;;8.90;;
28762;SDS011;15918;51.270;6.522;2024-03-23T07:31:27;19.25;;;9.43;;
28762;SDS011;15918;51.270;6.522;2024-03-23T07:33:52;18.30;;;8.63;;
28762;SDS011;15918;51.270;6.522;2024-03-23T07:36:18;20.55;;;9.60;;
28762;SDS011;15918;51.270;6.522;2024-03-23T07:38:44;25.02;;;11.30;;
28762;SDS011;15918;51.270;6.522;2024-03-23T07:41:16;22.02;;;10.98;;
28762;SDS011;15918;51.270;6.522;2024-03-23T07:43:45;20.38;;;9.43;;
28762;SDS011;15918;51.270;6.522;2024-03-23T07:46:12;18.02;;;9.27;;
28762;SDS011;15918;51.270;6.522;2024-03-23T07:48:40;18.77;;;8.27;;
28762;SDS011;15918;51.270;6.522;2024-03-23T07:51:11;20.15;;;8.18;;
28762;SDS011;15918;51.270;6.522;2024-03-23T07:53:45;18.17;;;8.15;;
28762;SDS011;15918;51.270;6.522;2024-03-23T07:56:17;17.92;;;8.07;;
28762;SDS011;15918;51.270;6.522;2024-03-23T07:58:44;18.08;;;8.07;;
28762;SDS011;15918;51.270;6.522;2024-03-23T08:01:11;16.75;;;8.15;;
28762;SDS011;15918;51.270;6.522;2024-03-23T08:03:38;16.58;;;8.38;;
28762;SDS011;15918;51.270;6.522;2024-03-23T08:06:15;17.85;;;7.45;;
28762;SDS011;15918;51.270;6.522;2024-03-23T08:08:43;17.05;;;7.25;;
28762;SDS011;15918;51.270;6.522;2024-03-23T08:11:10;16.38;;;7.18;;
28762;SDS011;15918;51.270;6.522;2024-03-23T08:13:39;16.00;;;6.57;;
28762;SDS011;15918;51.270;6.522;2024-03-23T08:16:06;16.33;;;6.45;;
28762;SDS011;15918;51.270;6.522;2024-03-23T08:18:32;17.98;;;6.25;;
28762;SDS011;15918;51.270;6.522;2024-03-23T08:20:58;15.65;;;6.63;;
28762;SDS011;15918;51.270;6.522;2024-03-23T08:23:25;13.80;;;5.93;;
28762;SDS011;15918;51.270;6.522;2024-03-23T08:25:52;12.40;;;5.72;;
28762;SDS011;15918;51.270;6.522;2024-03-23T08:28:22;14.68;;;6.43;;
28762;SDS011;15918;51.270;6.522;2024-03-23T08:30:47;13.77;;;5.45;;
28762;SDS011;15918;51.270;6.522;2024-03-23T08:33:14;17.10;;;5.50;;
28762;SDS011;15918;51.270;6.522;2024-03-23T08:35:40;18.90;;;6.07;;
28762;SDS011;15918;51.270;6.522;2024-03-23T08:38:06;15.13;;;5.32;;
28762;SDS011;15918;51.270;6.522;2024-03-23T08:40:32;16.55;;;5.57;;
28762;SDS011;15918;51.270;6.522;2024-03-23T08:42:58;14.25;;;5.30;;
28762;SDS011;15918;51.270;6.522;2024-03-23T08:45:26;13.00;;;5.50;;
28762;SDS011;15918;51.270;6.522;2024-03-23T08:47:52;12.55;;;5.28;;
28762;SDS011;15918;51.270;6.522;2024-03-23T08:50:18;15.50;;;5.25;;
28762;SDS011;15918;51.270;6.522;2024-03-23T08:52:43;15.05;;;4.95;;
28762;SDS011;15918;51.270;6.522;2024-03-23T08:55:09;13.82;;;4.93;;
28762;SDS011;15918;51.270;6.522;2024-03-23T08:57:35;15.05;;;5.68;;
28762;SDS011;15918;51.270;6.522;2024-03-23T09:00:01;14.25;;;5.13;;
28762;SDS011;15918;51.270;6.522;2024-03-23T09:02:27;19.02;;;5.50;;
28762;SDS011;15918;51.270;6.522;2024-03-23T09:04:53;24.10;;;5.88;;
28762;SDS011;15918;51.270;6.522;2024-03-23T09:07:18;12.88;;;4.80;;
28762;SDS011;15918;51.270;6.522;2024-03-23T09:09:44;12.05;;;4.90;;
28762;SDS011;15918;51.270;6.522;2024-03-23T09:12:09;16.25;;;6.07;;
28762;SDS011;15918;51.270;6.522;2024-03-23T09:14:35;15.38;;;7.03;;
28762;SDS011;15918;51.270;6.522;2024-03-23T09:17:01;17.40;;;7.03;;
28762;SDS011;15918;51.270;6.522;2024-03-23T09:19:27;15.85;;;7.38;;
28762;SDS011;15918;51.270;6.522;2024-03-23T09:21:54;16.40;;;7.43;;
28762;SDS011;15918;51.270;6.522;2024-03-23T09:24:19;15.40;;;6.32;;
28762;SDS011;15918;51.270;6.522;2024-03-23T09:26:46;18.80;;;6.22;;
28762;SDS011;15918;51.270;6.522;2024-03-23T09:29:11;18.75;;;6.55;;
28762;SDS011;15918;51.270;6.522;2024-03-23T09:31:37;22.48;;;6.43;;
28762;SDS011;15918;51.270;6.522;2024-03-23T09:34:03;17.25;;;6.28;;
28762;SDS011;15918;51.270;6.522;2024-03-23T09:36:29;15.38;;;5.97;;
28762;SDS011;15918;51.270;6.522;2024-03-23T09:38:54;16.60;;;6.10;;
28762;SDS011;15918;51.270;6.522;2024-03-23T09:41:20;12.38;;;5.90;;
28762;SDS011;15918;51.270;6.522;2024-03-23T09:43:46;15.35;;;5.63;;
28762;SDS011;15918;51.270;6.522;2024-03-23T09:46:13;15.50;;;5.20;;
28762;SDS011;15918;51.270;6.522;2024-03-23T09:48:39;13.05;;;5.05;;
28762;SDS011;15918;51.270;6.522;2024-03-23T09:51:06;9.23;;;4.30;;
28762;SDS011;15918;51.270;6.522;2024-03-23T09:53:33;16.20;;;4.70;;
28762;SDS011;15918;51.270;6.522;2024-03-23T09:55:59;12.88;;;4.97;;
28762;SDS011;15918;51.270;6.522;2024-03-23T09:58:25;15.23;;;5.28;;
28762;SDS011;15918;51.270;6.522;2024-03-23T10:00:50;10.38;;;4.88;;
28762;SDS011;15918;51.270;6.522;2024-03-23T10:03:16;9.68;;;4.18;;
28762;SDS011;15918;51.270;6.522;2024-03-23T10:05:42;11.15;;;4.57;;
28762;SDS011;15918;51.270;6.522;2024-03-23T10:10:43;13.20;;;3.92;;
28762;SDS011;15918;51.270;6.522;2024-03-23T10:13:10;6.55;;;3.05;;
28762;SDS011;15918;51.270;6.522;2024-03-23T10:15:38;7.50;;;3.08;;
28762;SDS011;15918;51.270;6.522;2024-03-23T10:18:17;7.68;;;3.28;;
28762;SDS011;15918;51.270;6.522;2024-03-23T10:20:45;6.40;;;3.10;;
28762;SDS011;15918;51.270;6.522;2024-03-23T10:23:15;9.48;;;3.13;;
28762;SDS011;15918;51.270;6.522;2024-03-23T10:25:41;8.00;;;2.80;;
28762;SDS011;15918;51.270;6.522;2024-03-23T10:28:07;4.18;;;1.80;;
28762;SDS011;15918;51.270;6.522;2024-03-23T10:30:34;6.63;;;1.70;;
28762;SDS011;15918;51.270;6.522;2024-03-23T10:33:10;5.47;;;1.67;;
28762;SDS011;15918;51.270;6.522;2024-03-23T10:35:36;4.35;;;1.40;;
28762;SDS011;15918;51.270;6.522;2024-03-23T10:38:04;3.20;;;1.50;;
28762;SDS011;15918;51.270;6.522;2024-03-23T10:40:31;2.60;;;1.20;;
28762;SDS011;15918;51.270;6.522;2024-03-23T10:43:00;2.97;;;1.33;;
28762;SDS011;15918;51.270;6.522;2024-03-23T10:45:25;2.72;;;1.27;;
28762;SDS011;15918;51.270;6.522;2024-03-23T10:47:51;3.75;;;1.33;;
28762;SDS011;15918;51.270;6.522;2024-03-23T10:50:17;1.92;;;1.00;;
28762;SDS011;15918;51.270;6.522;2024-03-23T10:52:45;2.15;;;1.05;;
28762;SDS011;15918;51.270;6.522;2024-03-23T10:55:11;2.92;;;1.55;;
28762;SDS011;15918;51.270;6.522;2024-03-23T10:57:40;3.65;;;1.30;;
28762;SDS011;15918;51.270;6.522;2024-03-23T11:00:09;2.13;;;1.60;;
28762;SDS011;15918;51.270;6.522;2024-03-23T11:02:35;3.17;;;1.90;;
28762;SDS011;15918;51.270;6.522;2024-03-23T11:05:01;6.60;;;2.85;;
28762;SDS011;15918;51.270;6.522;2024-03-23T11:09:59;6.28;;;3.30;;
28762;SDS011;15918;51.270;6.522;2024-03-23T11:12:26;6.72;;;3.00;;
28762;SDS011;15918;51.270;6.522;2024-03-23T11:14:53;5.28;;;2.70;;
28762;SDS011;15918;51.270;6.522;2024-03-23T11:17:25;7.63;;;3.08;;
28762;SDS011;15918;51.270;6.522;2024-03-23T11:27:46;6.60;;;3.08;;
28762;SDS011;15918;51.270;6.522;2024-03-23T11:30:13;4.13;;;2.67;;
28762;SDS011;15918;51.270;6.522;2024-03-23T11:32:47;6.57;;;2.78;;
28762;SDS011;15918;51.270;6.522;2024-03-23T11:38:09;5.55;;;2.55;;
28762;SDS011;15918;51.270;6.522;2024-03-23T11:40:45;4.32;;;1.80;;
28762;SDS011;15918;51.270;6.522;2024-03-23T11:43:18;4.88;;;1.83;;
28762;SDS011;15918;51.270;6.522;2024-03-23T11:45:46;4.03;;;1.45;;
28762;SDS011;15918;51.270;6.522;2024-03-23T11:48:16;2.63;;;1.10;;
28762;SDS011;15918;51.270;6.522;2024-03-23T11:50:45;3.30;;;1.30;;
28762;SDS011;15918;51.270;6.522;2024-03-23T11:55:41;5.13;;;1.60;;
28762;SDS011;15918;51.270;6.522;2024-03-23T11:58:08;4.32;;;1.55;;
28762;SDS011;15918;51.270;6.522;2024-03-23T12:00:34;5.40;;;1.85;;
28762;SDS011;15918;51.270;6.522;2024-03-23T12:03:01;6.13;;;2.30;;
28762;SDS011;15918;51.270;6.522;2024-03-23T12:05:27;5.25;;;1.85;;
28762;SDS011;15918;51.270;6.522;2024-03-23T12:07:54;7.65;;;2.42;;
28762;SDS011;15918;51.270;6.522;2024-03-23T12:10:20;8.35;;;2.65;;
28762;SDS011;15918;51.270;6.522;2024-03-23T12:12:45;6.40;;;2.50;;
28762;SDS011;15918;51.270;6.522;2024-03-23T12:15:11;9.07;;;3.28;;
28762;SDS011;15918;51.270;6.522;2024-03-23T12:17:37;5.70;;;3.65;;
28762;SDS011;15918;51.270;6.522;2024-03-23T12:20:03;11.95;;;3.53;;
28762;SDS011;15918;51.270;6.522;2024-03-23T12:22:29;6.97;;;3.35;;
28762;SDS011;15918;51.270;6.522;2024-03-23T12:24:55;7.32;;;2.47;;
28762;SDS011;15918;51.270;6.522;2024-03-23T12:27:23;8.30;;;2.55;;
28762;SDS011;15918;51.270;6.522;2024-03-23T12:29:48;3.95;;;1.83;;
28762;SDS011;15918;51.270;6.522;2024-03-23T12:32:14;5.28;;;2.47;;
28762;SDS011;15918;51.270;6.522;2024-03-23T12:34:41;4.28;;;2.05;;
28762;SDS011;15918;51.270;6.522;2024-03-23T12:37:07;4.22;;;2.08;;
28762;SDS011;15918;51.270;6.522;2024-03-23T12:39:33;4.05;;;1.98;;
28762;SDS011;15918;51.270;6.522;2024-03-23T12:42:00;4.68;;;2.10;;
28762;SDS011;15918;51.270;6.522;2024-03-23T12:44:26;4.03;;;2.15;;
28762;SDS011;15918;51.270;6.522;2024-03-23T12:46:51;3.33;;;1.73;;
28762;SDS011;15918;51.270;6.522;2024-03-23T12:49:18;5.80;;;2.80;;
28762;SDS011;15918;51.270;6.522;2024-03-23T12:51:47;4.97;;;2.20;;
28762;SDS011;15918;51.270;6.522;2024-03-23T12:54:19;7.45;;;2.35;;
28762;SDS011;15918;51.270;6.522;2024-03-23T12:56:45;6.60;;;2.10;;
28762;SDS011;15918;51.270;6.522;2024-03-23T12:59:11;5.53;;;1.73;;
28762;SDS011;15918;51.270;6.522;2024-03-23T13:01:37;2.47;;;1.20;;
28762;SDS011;15918;51.270;6.522;2024-03-23T13:04:03;4.93;;;1.60;;
28762;SDS011;15918;51.270;6.522;2024-03-23T13:06:29;1.85;;;0.90;;
28762;SDS011;15918;51.270;6.522;2024-03-23T13:08:59;4.53;;;1.50;;
28762;SDS011;15918;51.270;6.522;2024-03-23T13:11:26;4.65;;;1.77;;
28762;SDS011;15918;51.270;6.522;2024-03-23T13:13:51;3.88;;;1.42;;
28762;SDS011;15918;51.270;6.522;2024-03-23T13:16:17;4.35;;;1.40;;
28762;SDS011;15918;51.270;6.522;2024-03-23T13:18:43;4.75;;;1.40;;
28762;SDS011;15918;51.270;6.522;2024-03-23T13:21:08;3.58;;;1.13;;
28762;SDS011;15918;51.270;6.522;2024-03-23T13:23:34;3.40;;;1.20;;
28762;SDS011;15918;51.270;6.522;2024-03-23T13:26:00;2.78;;;1.17;;
28762;SDS011;15918;51.270;6.522;2024-03-23T13:28:26;2.95;;;1.30;;
28762;SDS011;15918;51.270;6.522;2024-03-23T13:30:55;3.15;;;0.90;;
28762;SDS011;15918;51.270;6.522;2024-03-23T13:33:22;3.92;;;2.40;;
28762;SDS011;15918;51.270;6.522;2024-03-23T13:35:54;8.65;;;3.72;;
28762;SDS011;15918;51.270;6.522;2024-03-23T13:38:21;9.02;;;4.32;;
28762;SDS011;15918;51.270;6.522;2024-03-23T13:40:54;8.00;;;4.43;;
28762;SDS011;15918;51.270;6.522;2024-03-23T13:43:21;7.57;;;4.05;;
28762;SDS011;15918;51.270;6.522;2024-03-23T13:45:48;10.20;;;4.93;;
28762;SDS011;15918;51.270;6.522;2024-03-23T13:48:16;8.90;;;4.85;;
28762;SDS011;15918;51.270;6.522;2024-03-23T13:50:43;11.65;;;4.68;;
28762;SDS011;15918;51.270;6.522;2024-03-23T13:53:08;7.05;;;3.50;;
28762;SDS011;15918;51.270;6.522;2024-03-23T13:55:34;6.38;;;3.10;;
28762;SDS011;15918;51.270;6.522;2024-03-23T13:57:59;6.65;;;3.25;;
28762;SDS011;15918;51.270;6.522;2024-03-23T14:00:25;5.47;;;3.05;;
28762;SDS011;15918;51.270;6.522;2024-03-23T14:02:51;8.15;;;2.85;;
28762;SDS011;15918;51.270;6.522;2024-03-23T14:05:16;7.25;;;2.70;;
28762;SDS011;15918;51.270;6.522;2024-03-23T14:07:42;7.32;;;3.28;;
28762;SDS011;15918;51.270;6.522;2024-03-23T14:10:07;8.55;;;3.17;;
28762;SDS011;15918;51.270;6.522;2024-03-23T14:12:36;6.95;;;2.97;;
28762;SDS011;15918;51.270;6.522;2024-03-23T14:15:04;6.45;;;2.45;;
28762;SDS011;15918;51.270;6.522;2024-03-23T14:17:31;7.03;;;2.15;;
28762;SDS011;15918;51.270;6.522;2024-03-23T14:19:56;6.40;;;1.85;;
28762;SDS011;15918;51.270;6.522;2024-03-23T14:22:25;4.88;;;1.63;;
28762;SDS011;15918;51.270;6.522;2024-03-23T14:24:54;4.35;;;1.20;;
28762;SDS011;15918;51.270;6.522;2024-03-23T14:27:19;2.83;;;1.20;;
28762;SDS011;15918;51.270;6.522;2024-03-23T14:29:46;2.83;;;1.52;;
28762;SDS011;15918;51.270;6.522;2024-03-23T14:32:12;4.43;;;1.50;;
28762;SDS011;15918;51.270;6.522;2024-03-23T14:34:38;5.47;;;1.42;;
28762;SDS011;15918;51.270;6.522;2024-03-23T14:37:03;2.67;;;1.20;;
28762;SDS011;15918;51.270;6.522;2024-03-23T14:39:30;3.55;;;1.80;;
28762;SDS011;15918;51.270;6.522;2024-03-23T14:41:56;4.55;;;1.77;;
28762;SDS011;15918;51.270;6.522;2024-03-23T14:44:22;6.93;;;1.90;;
28762;SDS011;15918;51.270;6.522;2024-03-23T14:46:48;5.03;;;1.83;;
28762;SDS011;15918;51.270;6.522;2024-03-23T14:49:15;3.95;;;1.70;;
28762;SDS011;15918;51.270;6.522;2024-03-23T14:51:43;3.85;;;1.70;;
28762;SDS011;15918;51.270;6.522;2024-03-23T14:54:09;6.63;;;1.85;;
28762;SDS011;15918;51.270;6.522;2024-03-23T14:56:35;4.97;;;1.95;;
28762;SDS011;15918;51.270;6.522;2024-03-23T14:59:01;5.15;;;1.95;;
28762;SDS011;15918;51.270;6.522;2024-03-23T15:01:27;3.38;;;1.85;;
28762;SDS011;15918;51.270;6.522;2024-03-23T15:03:53;5.20;;;1.90;;
28762;SDS011;15918;51.270;6.522;2024-03-23T15:06:19;4.60;;;2.20;;
28762;SDS011;15918;51.270;6.522;2024-03-23T15:08:44;5.53;;;1.92;;
28762;SDS011;15918;51.270;6.522;2024-03-23T15:11:10;2.80;;;1.58;;
28762;SDS011;15918;51.270;6.522;2024-03-23T15:13:36;5.10;;;2.17;;
28762;SDS011;15918;51.270;6.522;2024-03-23T15:16:03;5.90;;;2.00;;
28762;SDS011;15918;51.270;6.522;2024-03-23T15:18:30;3.80;;;1.52;;
28762;SDS011;15918;51.270;6.522;2024-03-23T15:20:56;18.65;;;7.18;;
28762;SDS011;15918;51.270;6.522;2024-03-23T15:23:32;12.85;;;6.82;;
28762;SDS011;15918;51.270;6.522;2024-03-23T15:25:59;9.80;;;5.40;;
28762;SDS011;15918;51.270;6.522;2024-03-23T15:28:28;7.72;;;3.35;;
28762;SDS011;15918;51.270;6.522;2024-03-23T15:31:05;5.45;;;2.40;;
28762;SDS011;15918;51.270;6.522;2024-03-23T15:33:32;5.63;;;2.78;;
28762;SDS011;15918;51.270;6.522;2024-03-23T15:36:01;7.88;;;2.30;;
28762;SDS011;15918;51.270;6.522;2024-03-23T15:38:27;5.05;;;2.25;;
28762;SDS011;15918;51.270;6.522;2024-03-23T15:40:56;4.88;;;1.75;;
28762;SDS011;15918;51.270;6.522;2024-03-23T15:43:22;5.82;;;2.30;;
28762;SDS011;15918;51.270;6.522;2024-03-23T15:46:21;3.70;;;1.55;;
28762;SDS011;15918;51.270;6.522;2024-03-23T15:48:40;5.95;;;2.17;;
28762;SDS011;15918;51.270;6.522;2024-03-23T15:51:11;4.85;;;1.95;;